Time;durP1;ratioP1;P1;durP2;ratioP2;P2;SDS_P1;SDS_P2;PMS_P1;PMS_P2;Temp;Humidity;BMP_temperature;BMP_pressure;BME280_temperature;BME280_humidity;BME280_pressure;Samples;Min_cycle;Max_cycle;Signal;HPM_P1;HPM_P2
2022/01/14 00:02:08;;;;;;;80.40;29.02;;;;;;;-1.97;100.00;100650.84;4861352;29;20064;-60
2022/01/14 00:04:34;;;;;;;77.65;28.30;;;;;;;-1.98;100.00;100647.38;4861130;29;20030;-61
2022/01/14 00:07:01;;;;;;;77.15;27.92;;;;;;;-1.99;100.00;100644.84;4861334;29;20033;-60
2022/01/14 00:09:26;;;;;;;73.60;27.27;;;;;;;-2.05;100.00;100640.75;4861157;29;20406;-61
2022/01/14 00:11:56;;;;;;;78.27;28.93;;;;;;;-2.05;100.00;100642.53;4861158;29;20116;-60
2022/01/14 00:14:38;;;;;;;77.03;27.05;;;;;;;-2.08;100.00;100648.78;4861158;29;20032;-60
2022/01/14 00:17:12;;;;;;;76.45;27.65;;;;;;;-2.12;100.00;100641.16;4861063;29;20037;-60
2022/01/14 00:19:38;;;;;;;75.68;27.77;;;;;;;-2.10;100.00;100626.22;4860834;29;20049;-60
2022/01/14 00:22:09;;;;;;;76.75;26.85;;;;;;;-2.17;100.00;100630.91;4859497;29;20483;-60
2022/01/14 00:35:20;;;;;;;77.50;24.83;;;;;;;-2.03;100.00;100625.81;4861225;29;20073;-60
2022/01/14 00:37:45;;;;;;;81.37;28.47;;;;;;;-1.99;100.00;100624.72;4860880;29;20129;-61
2022/01/14 00:40:11;;;;;;;72.77;24.83;;;;;;;-2.07;100.00;100611.16;4860705;29;20411;-60
2022/01/14 00:42:37;;;;;;;75.60;25.73;;;;;;;-2.06;100.00;100615.47;4860671;29;20116;-60
2022/01/14 00:45:07;;;;;;;78.20;26.97;;;;;;;-2.01;100.00;100618.72;4860543;29;20116;-60
2022/01/14 00:47:34;;;;;;;81.45;25.77;;;;;;;-1.96;100.00;100611.44;4859249;29;20034;-60
2022/01/14 00:50:01;;;;;;;75.18;24.98;;;;;;;-1.85;100.00;100627.44;4860738;29;20419;-60
2022/01/14 00:52:26;;;;;;;77.30;27.45;;;;;;;-1.80;100.00;100621.13;4860457;29;20037;-60
2022/01/14 00:54:52;;;;;;;73.17;25.20;;;;;;;-1.84;100.00;100607.31;4860378;29;20030;-60
2022/01/14 00:57:29;;;;;;;71.60;25.57;;;;;;;-1.92;100.00;100613.00;4860346;29;20025;-60
2022/01/14 00:59:54;;;;;;;74.60;26.77;;;;;;;-1.92;100.00;100614.75;4860528;29;20470;-60
2022/01/14 01:02:20;;;;;;;84.40;29.40;;;;;;;-1.94;100.00;100611.38;4860340;29;20066;-60
2022/01/14 01:04:46;;;;;;;77.67;26.23;;;;;;;-1.83;100.00;100622.13;4860132;29;20400;-60
2022/01/14 01:07:12;;;;;;;85.53;27.10;;;;;;;-1.75;100.00;100621.72;4860280;29;20447;-60
2022/01/14 01:09:41;;;;;;;76.88;27.70;;;;;;;-1.76;100.00;100620.88;4859068;29;20034;-60
2022/01/14 01:15:05;;;;;;;74.53;24.83;;;;;;;-1.63;100.00;100607.97;4860214;29;20037;-60
2022/01/14 01:17:31;;;;;;;70.10;23.75;;;;;;;-1.59;100.00;100614.72;4860121;29;20040;-60
2022/01/14 01:19:56;;;;;;;72.50;25.53;;;;;;;-1.66;100.00;100618.63;4859840;29;20487;-60
2022/01/14 01:22:22;;;;;;;73.13;24.90;;;;;;;-1.61;100.00;100617.41;4859917;29;20029;-60
2022/01/14 01:24:47;;;;;;;78.17;26.30;;;;;;;-1.63;100.00;100623.69;4859802;29;20085;-60
2022/01/14 01:27:16;;;;;;;81.20;28.43;;;;;;;-1.75;100.00;100619.97;4859698;29;20106;-60
2022/01/14 01:32:08;;;;;;;70.73;27.50;;;;;;;-1.80;100.00;100611.50;4858915;29;20091;-60
2022/01/14 01:34:35;;;;;;;71.82;24.98;;;;;;;-1.88;100.00;100609.28;4859748;29;20531;-60
2022/01/14 01:37:01;;;;;;;70.80;25.88;;;;;;;-1.86;100.00;100611.84;4859658;29;20065;-60
2022/01/14 01:39:29;;;;;;;78.75;26.67;;;;;;;-1.83;100.00;100609.03;4859653;29;20034;-60
2022/01/14 01:42:00;;;;;;;82.00;27.40;;;;;;;-1.89;100.00;100601.50;4859629;29;20041;-60
2022/01/14 01:44:27;;;;;;;76.55;27.98;;;;;;;-1.92;100.00;100592.03;4859822;29;20041;-60
2022/01/14 01:46:54;;;;;;;78.90;27.73;;;;;;;-1.89;100.00;100609.38;4859598;29;20029;-60
2022/01/14 01:49:24;;;;;;;75.80;26.38;;;;;;;-1.85;100.00;100598.63;4859628;29;20112;-60
2022/01/14 01:51:51;;;;;;;79.78;27.20;;;;;;;-1.90;100.00;100597.19;4859516;29;20037;-60
2022/01/14 01:54:18;;;;;;;83.20;27.40;;;;;;;-2.03;100.00;100589.13;4859628;29;20033;-60
2022/01/14 01:56:45;;;;;;;77.30;26.73;;;;;;;-1.94;100.00;100577.31;4859386;29;20037;-60
2022/01/14 01:59:11;;;;;;;73.32;25.63;;;;;;;-1.88;100.00;100579.63;4859480;29;20104;-60
2022/01/14 02:01:41;;;;;;;77.67;25.53;;;;;;;-1.82;100.00;100577.50;4859567;29;20124;-60
2022/01/14 02:04:07;;;;;;;71.43;25.20;;;;;;;-1.93;100.00;100579.84;4858240;29;20033;-60
2022/01/14 02:06:37;;;;;;;74.55;26.70;;;;;;;-1.83;100.00;100573.19;4859368;29;20038;-61
2022/01/14 02:09:04;;;;;;;79.30;28.17;;;;;;;-1.85;100.00;100572.41;4858189;29;20045;-61
2022/01/14 02:11:30;;;;;;;79.43;26.90;;;;;;;-1.79;100.00;100570.41;4859324;29;20034;-61
2022/01/14 02:13:58;;;;;;;77.07;26.20;;;;;;;-1.96;100.00;100556.44;4859350;29;20052;-60
2022/01/14 02:16:36;;;;;;;76.95;26.50;;;;;;;-2.02;100.00;100553.31;4859276;29;20395;-61
2022/01/14 02:19:25;;;;;;;79.07;25.58;;;;;;;-2.03;100.00;100547.22;4858884;29;20060;-60
2022/01/14 02:27:14;;;;;;;78.35;26.02;;;;;;;-2.26;100.00;100532.75;4859081;29;20451;-61
2022/01/14 02:29:41;;;;;;;86.00;27.60;;;;;;;-2.33;100.00;100520.91;4859164;29;20030;-61
2022/01/14 02:32:08;;;;;;;87.47;28.80;;;;;;;-2.31;100.00;100528.69;4859126;29;20041;-60
2022/01/14 02:34:36;;;;;;;88.78;29.98;;;;;;;-2.30;100.00;100525.13;4859047;29;20038;-61
2022/01/14 02:37:02;;;;;;;81.30;26.23;;;;;;;-2.35;100.00;100525.38;4859056;29;20037;-61
2022/01/14 02:39:28;;;;;;;84.20;27.23;;;;;;;-2.42;100.00;100529.22;4859206;29;20033;-60
2022/01/14 02:41:53;;;;;;;83.83;26.97;;;;;;;-2.33;100.00;100534.00;4858971;29;20093;-61
2022/01/14 02:44:26;;;;;;;90.00;29.83;;;;;;;-2.34;100.00;100526.22;4860960;29;20037;-60
2022/01/14 02:46:58;;;;;;;93.18;27.25;;;;;;;-2.33;100.00;100522.69;4862825;29;20044;-61
2022/01/14 02:49:28;;;;;;;80.30;27.20;;;;;;;-2.27;100.00;100525.81;4862915;29;20120;-60
2022/01/14 02:51:55;;;;;;;83.75;25.60;;;;;;;-2.20;100.00;100523.72;4861503;29;20033;-61
2022/01/14 02:54:23;;;;;;;85.20;28.02;;;;;;;-2.16;100.00;100525.25;4862600;29;20029;-61
2022/01/14 02:56:52;;;;;;;95.70;29.80;;;;;;;-2.19;100.00;100531.47;4862440;29;20094;-61
2022/01/14 02:59:20;;;;;;;90.93;27.55;;;;;;;-2.15;100.00;100526.09;4862548;29;20436;-61
2022/01/14 03:01:47;;;;;;;83.35;26.83;;;;;;;-2.14;100.00;100525.16;4861218;29;20041;-61
2022/01/14 03:04:18;;;;;;;80.65;26.85;;;;;;;-2.19;100.00;100521.00;4862437;29;20475;-61
2022/01/14 03:06:44;;;;;;;86.18;29.30;;;;;;;-2.09;100.00;100520.53;4861271;29;20029;-60
2022/01/14 03:09:10;;;;;;;79.23;26.20;;;;;;;-2.10;100.00;100522.31;4861269;29;20041;-60
2022/01/14 03:11:49;;;;;;;87.80;26.40;;;;;;;-2.04;100.00;100514.09;4862388;29;20522;-61
2022/01/14 03:14:24;;;;;;;79.55;25.17;;;;;;;-2.03;100.00;100514.94;4862356;29;20041;-60
2022/01/14 03:16:51;;;;;;;78.20;25.60;;;;;;;-2.17;100.00;100515.69;4862277;29;20551;-61
2022/01/14 03:19:21;;;;;;;82.50;26.83;;;;;;;-2.15;100.00;100502.53;4862039;29;20121;-60
2022/01/14 03:21:52;;;;;;;84.20;26.20;;;;;;;-2.11;100.00;100501.44;4862406;29;20384;-60
2022/01/14 03:24:22;;;;;;;83.47;26.63;;;;;;;-2.11;100.00;100496.19;4861963;29;20106;-60
2022/01/14 03:26:49;;;;;;;80.28;25.73;;;;;;;-2.06;100.00;100491.53;4860458;29;20125;-61
2022/01/14 03:29:15;;;;;;;83.97;27.83;;;;;;;-2.01;100.00;100492.16;4860789;29;20108;-61
2022/01/14 03:31:42;;;;;;;86.15;29.58;;;;;;;-2.10;100.00;100484.78;4861840;29;20105;-61
2022/01/14 03:34:08;;;;;;;75.05;24.20;;;;;;;-2.04;100.00;100493.16;4861926;29;20175;-61
2022/01/14 03:36:34;;;;;;;71.73;23.33;;;;;;;-2.05;100.00;100480.13;4860740;29;20486;-60
2022/01/14 03:39:00;;;;;;;73.07;25.30;;;;;;;-2.05;100.00;100480.13;4861584;29;20040;-60
2022/01/14 03:41:25;;;;;;;73.10;26.20;;;;;;;-2.02;100.00;100477.34;4861675;29;20191;-60
2022/01/14 03:43:51;;;;;;;75.07;25.97;;;;;;;-2.14;100.00;100478.88;4861532;29;20037;-61
2022/01/14 03:46:17;;;;;;;78.33;24.70;;;;;;;-2.17;100.00;100479.03;4861714;29;20041;-61
2022/01/14 03:48:42;;;;;;;75.97;27.23;;;;;;;-2.14;100.00;100480.66;4860363;29;20112;-61
2022/01/14 03:51:09;;;;;;;79.47;26.63;;;;;;;-2.16;100.00;100478.09;4860359;29;20026;-61
2022/01/14 03:53:34;;;;;;;74.07;24.70;;;;;;;-2.17;100.00;100472.94;4861489;29;20029;-60
2022/01/14 03:56:00;;;;;;;69.90;24.70;;;;;;;-2.21;100.00;100467.91;4860330;29;20044;-61
2022/01/14 03:58:25;;;;;;;75.13;22.60;;;;;;;-2.19;100.00;100467.78;4861414;29;20103;-61
2022/01/14 04:00:51;;;;;;;78.37;25.37;;;;;;;-2.25;100.00;100461.13;4861391;29;20029;-61
2022/01/14 04:03:17;;;;;;;80.90;28.70;;;;;;;-2.25;100.00;100458.50;4861284;29;20050;-61
2022/01/14 04:05:42;;;;;;;73.47;22.43;;;;;;;-2.21;100.00;100464.44;4861360;29;20101;-61
2022/01/14 04:08:08;;;;;;;75.37;24.00;;;;;;;-2.21;100.00;100462.66;4861278;29;20052;-60
2022/01/14 04:10:34;;;;;;;79.23;24.80;;;;;;;-2.26;100.00;100456.81;4861291;29;20037;-60
2022/01/14 04:13:04;;;;;;;69.70;22.67;;;;;;;-2.34;100.00;100456.41;4860044;29;20467;-61
2022/01/14 04:15:37;;;;;;;72.18;24.50;;;;;;;-2.29;100.00;100449.13;4861206;29;20033;-61
2022/01/14 04:18:07;;;;;;;76.45;24.95;;;;;;;-2.30;100.00;100455.28;4860905;29;20124;-61
2022/01/14 04:20:34;;;;;;;78.78;24.60;;;;;;;-2.22;100.00;100457.50;4861040;29;20131;-60
2022/01/14 04:23:01;;;;;;;74.57;23.23;;;;;;;-2.35;100.00;100462.56;4861190;29;20037;-61
2022/01/14 04:25:27;;;;;;;74.55;22.55;;;;;;;-2.35;100.00;100462.56;4861128;29;20041;-60
2022/01/14 04:27:53;;;;;;;72.95;22.15;;;;;;;-2.36;100.00;100449.53;4860963;29;20028;-61
2022/01/14 04:30:20;;;;;;;74.40;23.10;;;;;;;-2.35;100.00;100459.94;4861039;29;20041;-60
2022/01/14 04:32:46;;;;;;;77.15;23.15;;;;;;;-2.25;100.00;100466.38;4860910;29;20025;-60
2022/01/14 04:35:12;;;;;;;71.40;21.88;;;;;;;-2.29;100.00;100458.75;4860973;29;20029;-61
2022/01/14 04:37:38;;;;;;;73.03;23.60;;;;;;;-2.21;100.00;100462.66;4860898;29;20501;-61
2022/01/14 04:40:04;;;;;;;65.70;21.60;;;;;;;-2.11;100.00;100459.53;4859526;29;20025;-61
2022/01/14 04:42:30;;;;;;;73.65;24.42;;;;;;;-2.11;100.00;100460.38;4860638;29;20057;-61
2022/01/14 04:44:56;;;;;;;71.05;22.92;;;;;;;-2.07;100.00;100458.41;4860562;29;20033;-61
2022/01/14 04:47:56;;;;;;;71.77;24.53;;;;;;;-2.08;100.00;100448.91;4860527;29;20058;-61
2022/01/14 04:50:16;;;;;;;64.88;22.30;;;;;;;-2.00;100.00;100452.78;4859399;29;20080;-60
2022/01/14 04:52:44;;;;;;;65.07;22.50;;;;;;;-1.95;100.00;100450.72;4859191;29;20491;-61
2022/01/14 04:55:11;;;;;;;71.38;25.23;;;;;;;-1.89;100.00;100453.03;4860432;29;20030;-60
2022/01/14 04:57:39;;;;;;;63.72;23.73;;;;;;;-1.91;100.00;100452.25;4859233;29;20424;-61
2022/01/14 05:00:07;;;;;;;59.17;22.33;;;;;;;-1.98;100.00;100445.69;4860381;29;20392;-60
2022/01/14 05:02:33;;;;;;;58.38;19.95;;;;;;;-1.94;100.00;100441.94;4860605;29;20510;-60
2022/01/14 05:04:59;;;;;;;65.53;24.60;;;;;;;-1.92;100.00;100444.47;4860384;29;20030;-61
2022/01/14 05:07:27;;;;;;;58.17;21.73;;;;;;;-1.93;100.00;100445.41;4859916;29;20498;-60
2022/01/14 05:12:34;;;;;;;64.57;20.80;;;;;;;-1.89;100.00;100444.31;4860352;29;20044;-61
2022/01/14 05:14:59;;;;;;;61.72;23.60;;;;;;;-1.89;100.00;100447.78;4860109;29;20383;-61
2022/01/14 05:17:25;;;;;;;60.83;20.00;;;;;;;-1.83;100.00;100444.81;4859977;29;20108;-61
2022/01/14 05:19:51;;;;;;;58.17;21.13;;;;;;;-1.90;100.00;100443.47;4859834;29;20098;-60
2022/01/14 05:22:18;;;;;;;58.95;19.48;;;;;;;-1.80;100.00;100446.41;4860183;29;20403;-61
2022/01/14 05:24:44;;;;;;;64.70;23.80;;;;;;;-1.72;100.00;100440.72;4859879;29;20037;-61
2022/01/14 05:27:10;;;;;;;65.00;21.02;;;;;;;-1.83;100.00;100423.84;4859823;29;20061;-61
2022/01/14 05:29:35;;;;;;;59.90;19.93;;;;;;;-1.76;100.00;100439.25;4858769;29;20053;-61
2022/01/14 05:32:05;;;;;;;54.40;19.87;;;;;;;-1.69;100.00;100437.94;4859731;29;20029;-61
2022/01/14 05:34:35;;;;;;;58.78;21.23;;;;;;;-1.75;100.00;100447.00;4859762;29;20073;-61
2022/01/14 05:37:03;;;;;;;58.03;20.50;;;;;;;-1.84;100.00;100447.50;4859863;29;20041;-60
2022/01/14 05:39:28;;;;;;;62.55;21.52;;;;;;;-1.92;100.00;100449.72;4859667;29;20089;-61
2022/01/14 05:41:55;;;;;;;54.97;19.30;;;;;;;-1.93;100.00;100451.50;4859636;29;20041;-60
2022/01/14 05:44:26;;;;;;;62.25;20.95;;;;;;;-1.88;100.00;100456.50;4859522;29;20032;-61
2022/01/14 05:46:53;;;;;;;54.33;19.25;;;;;;;-1.92;100.00;100457.56;4859645;29;20089;-60
2022/01/14 05:49:19;;;;;;;57.00;21.05;;;;;;;-1.92;100.00;100457.56;4859570;29;20065;-61
2022/01/14 05:51:45;;;;;;;59.10;19.77;;;;;;;-1.97;100.00;100446.53;4859519;29;20072;-61
2022/01/14 05:54:11;;;;;;;54.50;19.88;;;;;;;-1.97;100.00;100455.22;4859921;29;20112;-62
2022/01/14 05:56:37;;;;;;;57.93;19.97;;;;;;;-1.94;100.00;100457.66;4859593;29;20046;-61
2022/01/14 05:59:03;;;;;;;59.93;21.27;;;;;;;-2.00;100.00;100444.06;4859328;29;20124;-61
2022/01/14 06:01:32;;;;;;;57.90;19.67;;;;;;;-2.02;100.00;100452.00;4858029;29;20456;-61
2022/01/14 06:03:59;;;;;;;60.67;20.85;;;;;;;-2.03;100.00;100455.56;4857901;29;20048;-61
2022/01/14 06:06:24;;;;;;;64.15;23.27;;;;;;;-2.11;100.00;100455.16;4859317;29;20036;-61
2022/01/14 06:08:50;;;;;;;61.20;21.03;;;;;;;-2.15;100.00;100445.75;4859108;29;20029;-61
2022/01/14 06:11:16;;;;;;;60.35;21.10;;;;;;;-2.22;100.00;100450.50;4859308;29;20495;-61
2022/01/14 06:13:42;;;;;;;63.60;22.47;;;;;;;-2.23;100.00;100454.03;4859047;29;20112;-60
2022/01/14 06:16:07;;;;;;;65.50;23.80;;;;;;;-2.27;100.00;100449.03;4858962;29;20052;-61
2022/01/14 06:18:33;;;;;;;66.37;22.07;;;;;;;-2.31;100.00;100444.91;4858214;29;20057;-61
2022/01/14 06:20:58;;;;;;;64.10;23.23;;;;;;;-2.37;100.00;100440.84;4859178;29;20062;-60
2022/01/14 06:23:24;;;;;;;68.07;22.47;;;;;;;-2.39;100.00;100441.84;4858988;29;20033;-61
2022/01/14 06:25:49;;;;;;;63.63;21.03;;;;;;;-2.32;100.00;100443.22;4858930;29;20038;-61
2022/01/14 06:28:15;;;;;;;74.57;26.27;;;;;;;-2.34;100.00;100442.47;4857596;29;20057;-61
2022/01/14 06:30:41;;;;;;;64.70;22.97;;;;;;;-2.40;100.00;100438.38;4858967;29;20476;-61
2022/01/14 06:33:07;;;;;;;75.63;26.23;;;;;;;-2.45;100.00;100423.88;4858835;29;20041;-61
2022/01/14 06:35:32;;;;;;;67.90;22.73;;;;;;;-2.52;100.00;100428.56;4858956;29;20032;-61
2022/01/14 06:38:00;;;;;;;64.47;21.60;;;;;;;-2.51;100.00;100437.28;4858828;29;20519;-61
2022/01/14 06:40:26;;;;;;;71.32;24.50;;;;;;;-2.50;100.00;100425.88;4858909;29;20387;-60
2022/01/14 06:42:52;;;;;;;69.45;24.05;;;;;;;-2.50;100.00;100428.50;4858872;29;20036;-61
2022/01/14 06:45:18;;;;;;;87.20;29.52;;;;;;;-2.52;100.00;100430.34;4857545;29;20034;-61
2022/01/14 06:47:44;;;;;;;75.40;25.20;;;;;;;-2.54;100.00;100422.59;4858742;29;20093;-60
2022/01/14 06:50:10;;;;;;;66.83;23.03;;;;;;;-2.47;100.00;100421.34;4858822;29;20650;-61
2022/01/14 06:52:35;;;;;;;69.23;21.90;;;;;;;-2.48;100.00;100424.88;4858803;29;20037;-60
2022/01/14 06:55:01;;;;;;;67.07;22.90;;;;;;;-2.47;100.00;100425.72;4858876;29;20026;-62
2022/01/14 06:57:27;;;;;;;63.77;20.67;;;;;;;-2.48;100.00;100427.50;4856984;29;20396;-61
2022/01/14 06:59:52;;;;;;;65.37;23.97;;;;;;;-2.53;100.00;100431.28;4836505;29;20077;-61
2022/01/14 07:02:21;;;;;;;73.90;23.47;;;;;;;-2.54;100.00;100434.84;4836460;29;20038;-62
2022/01/14 07:04:47;;;;;;;74.43;23.20;;;;;;;-2.47;100.00;100442.28;4839044;29;20034;-60
2022/01/14 07:07:12;;;;;;;73.60;22.10;;;;;;;-2.37;100.00;100434.75;4840506;29;20041;-60
2022/01/14 07:09:55;;;;;;;69.93;20.50;;;;;;;-2.37;100.00;100433.00;4840323;29;20030;-59
2022/01/14 07:12:25;;;;;;;69.90;20.75;;;;;;;-2.34;100.00;100439.84;4840640;29;20421;-60
2022/01/14 07:14:52;;;;;;;69.97;21.52;;;;;;;-2.38;100.00;100431.31;4838980;29;20034;-60
2022/01/14 07:17:18;;;;;;;70.93;20.70;;;;;;;-2.39;100.00;100428.75;4840090;29;20107;-60
2022/01/14 07:19:43;;;;;;;69.03;21.53;;;;;;;-2.39;100.00;100434.00;4839970;29;20058;-61
2022/01/14 07:22:09;;;;;;;64.00;20.10;;;;;;;-2.31;100.00;100434.44;4840033;29;20037;-61
2022/01/14 07:24:36;;;;;;;63.97;20.40;;;;;;;-2.29;100.00;100433.41;4840079;29;20041;-62
2022/01/14 07:27:02;;;;;;;65.53;20.30;;;;;;;-2.19;100.00;100433.75;4839847;29;20108;-62
2022/01/14 07:29:28;;;;;;;66.20;20.67;;;;;;;-2.22;100.00;100424.31;4839222;29;20084;-62
2022/01/14 07:31:53;;;;;;;69.47;21.40;;;;;;;-2.15;100.00;100429.19;4842807;29;20068;-61
2022/01/14 07:34:19;;;;;;;62.97;21.10;;;;;;;-2.09;100.00;100424.47;4841152;29;20109;-61
2022/01/14 07:36:44;;;;;;;67.63;20.90;;;;;;;-2.16;100.00;100428.34;4843362;29;20034;-60
2022/01/14 07:39:10;;;;;;;66.77;21.13;;;;;;;-2.16;100.00;100420.50;4842927;29;20034;-61
2022/01/14 07:41:36;;;;;;;65.93;21.33;;;;;;;-2.12;100.00;100429.03;4843154;29;20093;-61
2022/01/14 07:44:03;;;;;;;64.60;20.00;;;;;;;-2.10;100.00;100427.19;4843631;29;20033;-61
2022/01/14 07:46:28;;;;;;;64.25;21.60;;;;;;;-2.00;100.00;100433.59;4842761;29;20551;-63
2022/01/14 07:48:54;;;;;;;62.07;20.83;;;;;;;-1.92;100.00;100429.59;4842545;29;20038;-63
2022/01/14 07:51:21;;;;;;;61.30;21.23;;;;;;;-1.83;100.00;100426.47;4842785;29;20060;-59
2022/01/14 07:53:47;;;;;;;62.03;20.07;;;;;;;-1.82;100.00;100425.53;4843059;29;20025;-59
2022/01/14 07:56:13;;;;;;;59.07;19.63;;;;;;;-1.83;100.00;100423.84;4839025;29;20029;-59
2022/01/14 07:58:40;;;;;;;65.43;20.58;;;;;;;-1.79;100.00;100424.53;4842694;29;20034;-59
2022/01/14 08:01:06;;;;;;;60.25;22.30;;;;;;;-1.54;100.00;100431.84;4842691;29;20469;-58
2022/01/14 08:03:31;;;;;;;56.83;19.50;;;;;;;-1.34;100.00;100430.66;4842143;29;20554;-60
2022/01/14 08:05:58;;;;;;;52.40;20.03;;;;;;;-1.08;100.00;100431.75;4840342;29;20045;-59
2022/01/14 08:08:24;;;;;;;50.45;18.65;;;;;;;-1.01;100.00;100433.06;4830960;29;20124;-60
2022/01/14 08:10:52;;;;;;;50.63;17.90;;;;;;;-0.40;100.00;100432.81;4842403;29;20033;-60
2022/01/14 08:13:26;;;;;;;53.00;18.30;;;;;;;-0.10;100.00;100428.25;4825522;29;20038;-64
2022/01/14 08:15:51;;;;;;;50.63;18.80;;;;;;;0.25;100.00;100426.00;4841152;29;20133;-64
2022/01/14 08:18:17;;;;;;;47.80;17.67;;;;;;;0.61;100.00;100425.38;4842272;29;20160;-63
2022/01/14 08:20:42;;;;;;;45.13;16.53;;;;;;;0.77;100.00;100426.97;4841052;29;20054;-63
2022/01/14 08:23:08;;;;;;;43.70;17.27;;;;;;;1.24;100.00;100429.88;4842032;29;20034;-63
2022/01/14 08:25:36;;;;;;;42.80;16.73;;;;;;;1.26;100.00;100433.25;4841000;29;20758;-64
2022/01/14 08:28:02;;;;;;;40.47;16.07;;;;;;;1.65;100.00;100434.88;4842508;29;20544;-63
2022/01/14 08:30:29;;;;;;;46.40;18.43;;;;;;;1.32;100.00;100426.69;4826043;29;20648;-63
2022/01/14 08:32:55;;;;;;;81.73;31.87;;;;;;;1.25;100.00;100433.34;4817111;29;20292;-64
2022/01/14 08:35:22;;;;;;;45.33;17.40;;;;;;;1.53;100.00;100430.47;4824771;29;20405;-64
2022/01/14 08:37:48;;;;;;;41.57;16.57;;;;;;;1.64;100.00;100425.28;4822399;29;20645;-63
2022/01/14 08:40:13;;;;;;;39.60;17.03;;;;;;;1.60;100.00;100431.72;4841681;29;20280;-63
2022/01/14 08:42:39;;;;;;;41.23;16.83;;;;;;;1.65;100.00;100424.31;4841071;29;20030;-63
2022/01/14 08:45:06;;;;;;;38.97;16.83;;;;;;;2.02;100.00;100414.63;4841790;29;20037;-64
2022/01/14 08:47:31;;;;;;;39.93;16.47;;;;;;;2.05;100.00;100419.69;4840715;29;20041;-64
2022/01/14 08:49:57;;;;;;;39.60;15.50;;;;;;;2.23;100.00;100411.38;4837725;29;20714;-66
2022/01/14 08:52:23;;;;;;;40.60;15.80;;;;;;;2.35;100.00;100398.13;4841468;29;20037;-66
2022/01/14 08:54:49;;;;;;;35.13;14.77;;;;;;;2.58;100.00;100400.84;4842131;29;20026;-64
2022/01/14 08:57:15;;;;;;;36.07;16.07;;;;;;;3.20;100.00;100406.66;4839104;29;20488;-65
2022/01/14 08:59:41;;;;;;;36.80;15.23;;;;;;;2.86;100.00;100408.41;4838958;29;20281;-66
2022/01/14 09:02:07;;;;;;;37.00;16.07;;;;;;;2.60;100.00;100401.59;4841177;29;20269;-67
2022/01/14 09:04:34;;;;;;;36.10;16.07;;;;;;;2.47;100.00;100404.31;4841028;29;20052;-67
2022/01/14 09:07:00;;;;;;;35.63;15.27;;;;;;;2.97;100.00;100392.56;4839485;29;20625;-65
2022/01/14 09:09:26;;;;;;;38.17;15.80;;;;;;;3.16;100.00;100389.34;4840049;29;20277;-66
2022/01/14 09:11:52;;;;;;;34.43;14.40;;;;;;;3.19;100.00;100391.75;4841593;29;20628;-66
2022/01/14 09:14:18;;;;;;;36.47;14.83;;;;;;;3.29;100.00;100400.66;4840833;29;20543;-67
2022/01/14 09:16:44;;;;;;;36.03;15.40;;;;;;;3.27;100.00;100394.63;4833465;29;20493;-66
2022/01/14 09:19:10;;;;;;;37.40;15.50;;;;;;;3.46;100.00;100396.69;4836181;29;20756;-65
2022/01/14 09:21:35;;;;;;;33.77;14.30;;;;;;;4.28;100.00;100400.63;4840118;29;20277;-66
2022/01/14 09:24:04;;;;;;;36.17;15.47;;;;;;;4.30;100.00;100399.53;4840871;29;20461;-66
2022/01/14 09:26:33;;;;;;;35.30;15.40;;;;;;;4.31;100.00;100405.66;4838964;29;20121;-67
2022/01/14 09:29:01;;;;;;;32.87;15.63;;;;;;;3.66;100.00;100400.41;4841221;29;20349;-66
2022/01/14 09:31:26;;;;;;;36.97;16.17;;;;;;;4.49;100.00;100403.31;4834786;29;20282;-66
2022/01/14 09:33:52;;;;;;;34.23;15.63;;;;;;;3.94;100.00;100406.00;4835848;29;20762;-67
2022/01/14 09:36:17;;;;;;;35.37;15.40;;;;;;;3.99;100.00;100403.00;4840644;29;20113;-68
2022/01/14 09:38:43;;;;;;;37.30;15.80;;;;;;;3.92;100.00;100405.28;4837641;29;20041;-66
2022/01/14 09:41:09;;;;;;;36.13;15.70;;;;;;;4.20;100.00;100406.53;4840520;29;20041;-66
2022/01/14 09:43:38;;;;;;;37.00;15.67;;;;;;;4.42;100.00;100394.19;4841283;29;20068;-67
2022/01/14 09:46:05;;;;;;;38.43;16.50;;;;;;;4.10;100.00;100402.13;4841025;29;20037;-66
2022/01/14 09:48:32;;;;;;;38.53;17.07;;;;;;;3.92;100.00;100401.81;4841147;29;20893;-67
2022/01/14 09:50:58;;;;;;;39.07;16.67;;;;;;;4.38;100.00;100406.88;4841029;29;20342;-66
2022/01/14 09:53:25;;;;;;;36.87;16.70;;;;;;;4.17;100.00;100398.84;4840420;29;20744;-67
2022/01/14 09:55:51;;;;;;;39.03;16.90;;;;;;;4.50;100.00;100389.94;4841065;29;20277;-65
2022/01/14 09:58:16;;;;;;;37.23;16.27;;;;;;;4.29;100.00;100395.19;4840684;29;20288;-64
2022/01/14 10:00:42;;;;;;;38.50;17.80;;;;;;;4.67;100.00;100394.69;4840897;29;20036;-65
2022/01/14 10:03:22;;;;;;;34.00;16.67;;;;;;;4.79;100.00;100392.81;4840961;29;20040;-67
2022/01/14 10:05:51;;;;;;;37.53;16.40;;;;;;;4.87;100.00;100394.81;4840996;29;20799;-67
2022/01/14 10:08:23;;;;;;;39.70;16.87;;;;;;;5.27;100.00;100389.63;4840789;29;20336;-70
2022/01/14 10:10:58;;;;;;;38.80;17.17;;;;;;;4.76;100.00;100381.63;4838605;29;20304;-66
2022/01/14 10:13:29;;;;;;;37.30;16.77;;;;;;;4.81;100.00;100380.28;4841269;29;20284;-68
2022/01/14 10:16:04;;;;;;;36.40;16.13;;;;;;;5.45;100.00;100374.75;4839653;29;20760;-67
2022/01/14 10:18:30;;;;;;;38.53;16.60;;;;;;;5.25;100.00;100378.31;4840545;29;20297;-69
2022/01/14 10:21:03;;;;;;;39.90;17.03;;;;;;;5.85;100.00;100374.75;4840940;29;20357;-69
2022/01/14 10:23:45;;;;;;;40.60;17.77;;;;;;;5.55;100.00;100367.69;4840584;29;20320;-69
2022/01/14 10:26:15;;;;;;;42.40;17.80;;;;;;;6.03;100.00;100364.34;4841310;29;20053;-70
2022/01/14 10:28:46;;;;;;;43.43;19.20;;;;;;;5.22;100.00;100365.31;4849804;29;20086;-69
2022/01/14 10:31:13;;;;;;;39.30;19.03;;;;;;;5.61;100.00;100355.72;4846404;29;20280;-69
2022/01/14 10:33:38;;;;;;;39.07;18.00;;;;;;;5.53;100.00;100352.91;4849389;29;20301;-69
2022/01/14 10:36:04;;;;;;;40.10;18.60;;;;;;;5.40;100.00;100348.66;4846886;29;20109;-69
2022/01/14 10:38:39;;;;;;;43.90;19.67;;;;;;;4.97;100.00;100351.53;4848557;29;20449;-70
2022/01/14 10:41:08;;;;;;;41.20;17.67;;;;;;;4.89;100.00;100332.81;4848091;29;20037;-69
2022/01/14 10:43:35;;;;;;;39.20;17.47;;;;;;;4.85;100.00;100326.06;4844510;29;20272;-69
2022/01/14 10:46:06;;;;;;;40.93;18.40;;;;;;;4.70;100.00;100330.91;4858727;29;20277;-67
2022/01/14 10:48:43;;;;;;;38.73;17.67;;;;;;;5.29;100.00;100324.91;4858952;29;20272;-68
2022/01/14 10:51:11;;;;;;;37.70;18.00;;;;;;;5.49;100.00;100325.81;4855287;29;20311;-67
2022/01/14 10:53:39;;;;;;;42.73;18.57;;;;;;;5.19;100.00;100313.44;4858281;29;20268;-67
2022/01/14 10:56:11;;;;;;;37.37;16.40;;;;;;;5.02;100.00;100325.50;4845723;29;20712;-67
2022/01/14 10:58:38;;;;;;;39.37;17.87;;;;;;;5.28;100.00;100314.44;4843500;29;20283;-67
2022/01/14 11:01:06;;;;;;;38.00;16.60;;;;;;;5.53;100.00;100299.88;4858383;29;20273;-67
2022/01/14 11:03:45;;;;;;;38.80;17.20;;;;;;;5.43;100.00;100300.66;4858640;29;20348;-67
2022/01/14 11:06:40;;;;;;;40.60;18.33;;;;;;;5.75;100.00;100289.88;4847614;29;20308;-67
2022/01/14 11:09:07;;;;;;;;;;;;;;;5.90;100.00;100286.81;4835923;29;20293;-67
2022/01/14 11:11:37;;;;;;;39.77;17.13;;;;;;;6.21;100.00;100282.25;4860525;29;20003;-67
2022/01/14 11:14:05;;;;;;;36.73;15.50;;;;;;;6.65;100.00;100278.97;4840992;29;20633;-66
2022/01/14 11:16:31;;;;;;;35.10;15.97;;;;;;;6.57;100.00;100278.84;4842118;29;20273;-66
2022/01/14 11:18:59;;;;;;;34.87;14.83;;;;;;;6.43;100.00;100266.00;4843309;29;20473;-66
2022/01/14 11:24:34;;;;;;;28.35;12.32;;;;;;;7.05;100.00;100270.69;4823223;29;20026;-65
2022/01/14 11:27:04;;;;;;;25.97;12.10;;;;;;;7.18;100.00;100259.72;4808460;29;20046;-65
2022/01/14 11:29:38;;;;;;;33.27;14.20;;;;;;;6.31;100.00;100267.97;4824483;29;20042;-65
2022/01/14 11:32:05;;;;;;;30.57;14.57;;;;;;;6.76;100.00;100262.00;4842230;29;20198;-67
2022/01/14 11:34:31;;;;;;;32.07;15.97;;;;;;;6.69;100.00;100260.94;4843180;29;20049;-68